createdAt,value
2018-05-08T00:00:22.254Z,87.32
2018-05-08T00:02:49.862Z,87.66
2018-05-08T00:05:17.456Z,87.99
2018-05-08T00:07:45.049Z,87.89
2018-05-08T00:10:12.913Z,87.78
2018-05-08T00:12:40.525Z,87.71
2018-05-08T00:15:08.136Z,87.84
2018-05-08T00:17:35.789Z,87.53
2018-05-08T00:20:03.590Z,87.75
2018-05-08T00:22:31.189Z,87.97
2018-05-08T00:24:58.750Z,88.08
2018-05-08T00:27:26.343Z,88.62
2018-05-08T00:29:53.928Z,88.92
2018-05-08T00:32:21.678Z,88.95
2018-05-08T00:34:49.238Z,89.02
2018-05-08T00:37:17.011Z,88.82
2018-05-08T00:39:44.636Z,88.27
2018-05-08T00:42:12.260Z,88.00
2018-05-08T00:44:40.070Z,87.92
2018-05-08T00:47:07.653Z,87.79
2018-05-08T00:49:35.232Z,87.62
2018-05-08T00:52:02.994Z,87.20
2018-05-08T00:54:42.428Z,86.91
2018-05-08T00:57:10.002Z,87.07
2018-05-08T00:59:37.572Z,87.03
2018-05-08T01:02:05.157Z,87.08
2018-05-08T01:04:33.058Z,86.80
2018-05-08T01:07:00.649Z,86.69
2018-05-08T01:09:28.224Z,86.80
2018-05-08T01:11:55.803Z,86.60
2018-05-08T01:14:23.399Z,86.48
2018-05-08T01:16:50.980Z,86.62
2018-05-08T01:19:18.627Z,87.32
2018-05-08T01:21:46.203Z,87.93
2018-05-08T01:24:13.834Z,88.16
2018-05-08T01:26:41.587Z,88.62
2018-05-08T01:29:09.332Z,89.14
2018-05-08T01:31:36.945Z,89.21
2018-05-08T01:34:04.523Z,89.02
2018-05-08T01:36:32.286Z,88.75
2018-05-08T01:38:59.897Z,88.63
2018-05-08T01:41:27.468Z,88.91
2018-05-08T01:43:55.143Z,88.73
2018-05-08T01:46:22.960Z,88.54
2018-05-08T01:48:50.540Z,88.61
2018-05-08T01:51:18.294Z,88.83
2018-05-08T01:53:46.024Z,88.77
2018-05-08T01:56:13.832Z,88.60
2018-05-08T01:58:41.406Z,88.26
2018-05-08T02:01:08.968Z,88.06
2018-05-08T02:03:36.557Z,87.84
2018-05-08T02:06:04.432Z,88.27
2018-05-08T02:08:32.201Z,88.71
2018-05-08T02:10:59.774Z,88.64
2018-05-08T02:13:27.341Z,88.61
2018-05-08T02:15:55.076Z,88.63
2018-05-08T02:18:22.896Z,88.69
2018-05-08T02:20:50.722Z,88.73
2018-05-08T02:23:18.322Z,88.78
2018-05-08T02:25:46.052Z,88.83
2018-05-08T02:28:13.613Z,88.68
2018-05-08T02:30:41.387Z,88.97
2018-05-08T02:33:09.201Z,88.85
2018-05-08T02:35:36.852Z,89.14
2018-05-08T02:38:04.563Z,89.52
2018-05-08T02:40:32.151Z,89.94
2018-05-08T02:42:59.736Z,89.85
2018-05-08T02:45:27.497Z,90.11
2018-05-08T02:47:55.106Z,90.07
2018-05-08T02:50:22.936Z,89.14
2018-05-08T02:52:50.555Z,88.96
2018-05-08T02:55:18.404Z,88.97
2018-05-08T02:57:46.000Z,88.97
2018-05-08T03:00:13.908Z,88.92
2018-05-08T03:02:41.491Z,88.43
2018-05-08T03:05:09.082Z,87.96
2018-05-08T03:07:36.671Z,87.74
2018-05-08T03:10:04.272Z,87.59
2018-05-08T03:12:31.926Z,87.22
2018-05-08T03:14:59.512Z,87.21
2018-05-08T03:17:27.184Z,87.58
2018-05-08T03:19:54.768Z,87.70
2018-05-08T03:22:22.428Z,87.90
2018-05-08T03:24:49.981Z,88.01
2018-05-08T03:27:17.560Z,88.13
2018-05-08T03:29:45.203Z,88.31
2018-05-08T03:32:12.802Z,88.46
2018-05-08T03:34:40.759Z,88.37
2018-05-08T03:37:08.324Z,88.65
2018-05-08T03:39:35.910Z,88.81
2018-05-08T03:42:03.490Z,88.56
2018-05-08T03:44:31.060Z,88.41
2018-05-08T03:46:58.716Z,88.09
2018-05-08T03:49:26.300Z,87.94
2018-05-08T03:51:54.084Z,88.00
2018-05-08T03:54:21.819Z,87.90
2018-05-08T03:56:49.381Z,87.10
2018-05-08T03:59:16.957Z,86.75
2018-05-08T04:01:56.398Z,86.55
2018-05-08T04:04:35.805Z,86.65
2018-05-08T04:10:05.276Z,86.94
2018-05-08T04:12:32.849Z,86.53
2018-05-08T04:15:00.779Z,86.09
2018-05-08T04:17:28.371Z,85.99
2018-05-08T04:19:56.118Z,85.91
2018-05-08T04:22:23.690Z,85.63
2018-05-08T04:24:51.262Z,84.84
2018-05-08T04:27:19.632Z,84.45
2018-05-08T04:29:47.525Z,84.09
2018-05-08T04:32:15.142Z,84.35
2018-05-08T04:34:42.899Z,84.24
2018-05-08T04:37:10.607Z,85.10
2018-05-08T04:39:38.200Z,85.75
2018-05-08T04:42:05.776Z,85.92
2018-05-08T04:44:33.574Z,85.34
2018-05-08T04:47:01.168Z,84.42
2018-05-08T04:49:28.789Z,83.05
2018-05-08T04:51:56.348Z,82.17
2018-05-08T04:54:24.141Z,81.64
2018-05-08T04:56:51.961Z,81.11
2018-05-08T04:59:19.573Z,81.04
2018-05-08T05:01:47.176Z,81.34
2018-05-08T05:04:14.776Z,80.56
2018-05-08T05:06:42.524Z,80.94
2018-05-08T05:09:10.125Z,80.22
2018-05-08T05:11:37.837Z,80.13
2018-05-08T05:14:05.910Z,80.36
2018-05-08T05:16:34.403Z,80.63
2018-05-08T05:19:02.137Z,80.19
2018-05-08T05:21:29.748Z,80.08
2018-05-08T05:23:57.411Z,80.10
2018-05-08T05:26:25.003Z,79.73
2018-05-08T05:28:52.851Z,79.49
2018-05-08T05:31:20.425Z,79.31
2018-05-08T05:33:48.240Z,79.18
2018-05-08T05:36:15.801Z,79.40
2018-05-08T05:38:43.352Z,79.32
2018-05-08T05:41:11.172Z,78.76
2018-05-08T05:43:38.785Z,78.64
2018-05-08T05:46:06.349Z,78.61
2018-05-08T05:48:34.148Z,78.20
2018-05-08T05:51:01.696Z,76.99
2018-05-08T05:53:29.268Z,76.64
2018-05-08T05:55:56.852Z,76.02
2018-05-08T05:58:24.478Z,76.13
2018-05-08T06:00:52.100Z,75.74
2018-05-08T06:03:19.821Z,75.45
2018-05-08T06:05:47.466Z,71.44
2018-05-08T06:08:15.055Z,65.77
2018-05-08T06:10:42.637Z,62.45
2018-05-08T06:13:10.428Z,60.05
2018-05-08T06:15:38.068Z,56.87
2018-05-08T06:18:05.733Z,56.09
2018-05-08T06:20:33.332Z,55.44
2018-05-08T06:23:00.917Z,54.15
2018-05-08T06:25:28.719Z,52.38
2018-05-08T06:27:56.537Z,51.72
2018-05-08T06:30:24.147Z,50.43
2018-05-08T06:32:51.974Z,48.27
2018-05-08T06:35:19.565Z,47.34
2018-05-08T06:37:47.282Z,46.75
2018-05-08T06:40:14.878Z,47.61
2018-05-08T06:42:42.448Z,47.24
2018-05-08T06:45:10.270Z,44.86
2018-05-08T06:47:37.855Z,46.77
2018-05-08T06:50:05.534Z,46.78
2018-05-08T06:52:33.088Z,44.73
2018-05-08T06:55:00.741Z,44.14
2018-05-08T06:57:28.416Z,40.82
2018-05-08T06:59:55.994Z,37.55
2018-05-08T07:02:23.585Z,36.39
2018-05-08T07:04:51.312Z,38.30
2018-05-08T07:07:18.936Z,38.28
2018-05-08T07:09:46.556Z,37.87
2018-05-08T07:12:14.283Z,36.67
2018-05-08T07:14:42.173Z,37.76
2018-05-08T07:17:10.003Z,37.25
2018-05-08T07:19:37.593Z,37.14
2018-05-08T07:22:05.229Z,37.12
2018-05-08T07:24:33.055Z,35.57
2018-05-08T07:27:00.678Z,35.65
2018-05-08T07:29:28.252Z,33.62
2018-05-08T07:31:55.883Z,34.97
2018-05-08T07:34:23.630Z,35.94
2018-05-08T07:36:51.193Z,35.89
2018-05-08T07:39:18.766Z,34.30
2018-05-08T07:41:46.391Z,33.66
2018-05-08T07:44:14.216Z,36.29
2018-05-08T07:46:41.786Z,35.15
2018-05-08T07:49:09.361Z,34.59
2018-05-08T07:51:37.154Z,34.91
2018-05-08T07:54:04.972Z,33.90
2018-05-08T07:56:32.540Z,33.68
2018-05-08T07:59:00.199Z,35.00
2018-05-08T08:01:27.927Z,37.68
2018-05-08T08:03:55.534Z,36.26
2018-05-08T08:06:23.366Z,34.54
2018-05-08T08:08:51.181Z,34.74
2018-05-08T08:11:18.797Z,33.88
2018-05-08T08:13:46.388Z,34.27
2018-05-08T08:16:13.956Z,32.21
2018-05-08T08:18:41.753Z,33.45
2018-05-08T08:21:09.493Z,33.64
2018-05-08T08:23:37.290Z,32.98
2018-05-08T08:26:04.871Z,34.27
2018-05-08T08:28:32.730Z,35.38
2018-05-08T08:31:00.381Z,35.59
2018-05-08T08:33:28.130Z,37.32
2018-05-08T08:35:55.723Z,37.73
2018-05-08T08:38:23.501Z,39.52
2018-05-08T08:40:51.306Z,38.80
2018-05-08T08:43:19.238Z,34.79
2018-05-08T08:45:47.441Z,34.98
2018-05-08T08:48:15.122Z,34.19
2018-05-08T08:50:42.795Z,33.82
2018-05-08T08:53:11.512Z,33.56
2018-05-08T08:55:39.133Z,34.01
2018-05-08T08:58:06.743Z,34.53
2018-05-08T09:00:34.365Z,36.94
2018-05-08T09:03:01.998Z,38.78
2018-05-08T09:05:29.556Z,38.15
2018-05-08T09:07:57.124Z,39.01
2018-05-08T09:10:24.948Z,40.50
2018-05-08T09:12:52.504Z,38.96
2018-05-08T09:15:20.280Z,40.22
2018-05-08T09:17:48.098Z,40.11
2018-05-08T09:20:16.093Z,40.88
2018-05-08T09:22:43.749Z,40.53
2018-05-08T09:25:11.959Z,40.51
2018-05-08T09:27:39.655Z,39.96
2018-05-08T09:30:07.300Z,40.54
2018-05-08T09:32:34.895Z,41.69
2018-05-08T09:35:02.900Z,42.35
2018-05-08T09:37:30.593Z,41.71
2018-05-08T09:39:58.274Z,41.64
2018-05-08T09:42:26.386Z,37.73
2018-05-08T09:44:53.980Z,36.92
2018-05-08T09:47:21.568Z,35.39
2018-05-08T09:49:49.146Z,37.64
2018-05-08T09:52:17.962Z,37.45
2018-05-08T09:54:45.607Z,39.47
2018-05-08T09:57:14.000Z,40.30
2018-05-08T09:59:41.637Z,41.76
2018-05-08T10:02:09.261Z,41.64
2018-05-08T10:04:37.156Z,39.12
2018-05-08T10:07:04.828Z,36.69
2018-05-08T10:09:32.399Z,37.28
2018-05-08T10:12:00.209Z,37.63
2018-05-08T10:14:27.787Z,38.21
2018-05-08T10:16:55.386Z,41.41
2018-05-08T10:19:23.063Z,42.86
2018-05-08T10:21:50.694Z,43.29
2018-05-08T10:24:18.269Z,42.33
2018-05-08T10:26:45.895Z,43.53
2018-05-08T10:29:13.521Z,43.36
2018-05-08T10:31:41.179Z,43.52
2018-05-08T10:34:09.766Z,44.72
2018-05-08T10:36:38.328Z,47.08
2018-05-08T10:39:06.087Z,42.26
2018-05-08T10:41:33.778Z,40.10
2018-05-08T10:44:01.974Z,40.11
2018-05-08T10:46:30.891Z,39.42
2018-05-08T10:48:58.464Z,38.84
2018-05-08T10:51:26.212Z,38.40
2018-05-08T10:53:54.157Z,39.82
2018-05-08T10:56:22.083Z,39.43
2018-05-08T10:58:49.869Z,39.61
2018-05-08T11:01:17.603Z,40.98
2018-05-08T11:03:46.807Z,41.48
2018-05-08T11:06:18.137Z,41.40
2018-05-08T11:08:45.778Z,41.33
2018-05-08T11:11:13.403Z,42.04
2018-05-08T11:13:41.195Z,42.36
2018-05-08T11:16:09.348Z,42.47
2018-05-08T11:18:36.988Z,43.27
2018-05-08T11:21:05.155Z,44.06
2018-05-08T11:23:35.311Z,45.73
2018-05-08T11:26:03.194Z,48.57
2018-05-08T11:28:30.912Z,49.58
2018-05-08T11:30:58.492Z,48.73
2018-05-08T11:33:26.057Z,48.82
2018-05-08T11:35:54.694Z,50.02
2018-05-08T11:38:22.266Z,50.73
2018-05-08T11:40:50.110Z,51.79
2018-05-08T11:43:17.912Z,53.11
2018-05-08T11:45:45.629Z,54.99
2018-05-08T11:48:13.438Z,55.54
2018-05-08T11:50:41.128Z,56.26
2018-05-08T11:53:09.907Z,60.58
2018-05-08T11:55:38.715Z,61.21
2018-05-08T11:58:07.291Z,61.54
2018-05-08T12:00:35.069Z,64.25
2018-05-08T12:03:02.914Z,64.46
2018-05-08T12:05:30.532Z,64.74
2018-05-08T12:07:58.094Z,64.40
2018-05-08T12:10:25.674Z,64.47
2018-05-08T12:12:53.365Z,64.80
2018-05-08T12:15:20.956Z,65.51
2018-05-08T12:17:48.713Z,65.08
2018-05-08T12:20:16.296Z,67.04
2018-05-08T12:22:43.962Z,67.86
2018-05-08T12:25:11.545Z,66.45
2018-05-08T12:27:39.857Z,68.42
2018-05-08T12:30:07.945Z,70.75
2018-05-08T12:32:35.809Z,70.93
2018-05-08T12:35:04.102Z,69.88
2018-05-08T12:37:31.867Z,69.10
2018-05-08T12:39:59.567Z,69.22
2018-05-08T12:42:27.245Z,70.18
2018-05-08T12:44:57.293Z,69.97
2018-05-08T12:47:25.229Z,70.99
2018-05-08T12:49:52.826Z,68.55
2018-05-08T12:52:24.078Z,68.48
2018-05-08T12:54:51.654Z,67.25
2018-05-08T12:57:19.225Z,66.73
2018-05-08T12:59:47.569Z,65.11
2018-05-08T13:02:15.238Z,65.12
2018-05-08T13:04:46.081Z,65.88
2018-05-08T13:07:15.559Z,64.48
2018-05-08T13:09:46.257Z,65.52
2018-05-08T13:12:13.837Z,66.82
2018-05-08T13:14:41.671Z,68.55
2018-05-08T13:17:09.231Z,69.87
2018-05-08T13:19:36.905Z,68.99
2018-05-08T13:22:04.517Z,69.60
2018-05-08T13:24:32.121Z,70.29
2018-05-08T13:26:59.711Z,70.73
2018-05-08T13:29:27.276Z,71.29
2018-05-08T13:31:54.858Z,72.73
2018-05-08T13:34:22.437Z,70.92
2018-05-08T13:36:50.116Z,72.07
2018-05-08T13:39:17.952Z,69.62
2018-05-08T13:41:45.529Z,70.99
2018-05-08T13:44:13.288Z,69.53
2018-05-08T13:46:40.849Z,69.38
2018-05-08T13:49:08.435Z,70.68
2018-05-08T13:51:36.243Z,66.46
2018-05-08T13:54:03.893Z,58.50
2018-05-08T13:56:31.485Z,65.55
2018-05-08T13:58:59.061Z,67.61
2018-05-08T14:01:26.648Z,67.13
2018-05-08T14:03:54.231Z,68.81
2018-05-08T14:06:22.051Z,67.40
2018-05-08T14:08:49.625Z,69.29
2018-05-08T14:11:17.273Z,69.93
2018-05-08T14:13:44.852Z,69.21
2018-05-08T14:16:12.785Z,68.49
2018-05-08T14:18:40.373Z,69.48
2018-05-08T14:21:07.935Z,69.52
2018-05-08T14:23:35.759Z,67.92
2018-05-08T14:26:03.356Z,69.10
2018-05-08T14:28:31.004Z,68.10
2018-05-08T14:30:58.861Z,67.00
2018-05-08T14:33:26.424Z,65.60
2018-05-08T14:35:54.269Z,65.61
2018-05-08T14:38:21.869Z,63.82
2018-05-08T14:40:49.428Z,62.84
2018-05-08T14:43:17.026Z,61.91
2018-05-08T14:45:44.600Z,61.21
2018-05-08T14:48:12.173Z,62.54
2018-05-08T14:50:39.748Z,63.36
2018-05-08T14:53:07.391Z,61.56
2018-05-08T14:55:34.964Z,60.83
2018-05-08T14:58:03.928Z,59.50
2018-05-08T15:00:32.046Z,57.37
2018-05-08T15:02:59.608Z,57.38
2018-05-08T15:05:27.280Z,59.25
2018-05-08T15:07:55.715Z,58.71
2018-05-08T15:10:23.385Z,54.16
2018-05-08T15:12:50.957Z,51.98
2018-05-08T15:15:18.754Z,54.35
2018-05-08T15:17:46.432Z,56.31
2018-05-08T15:20:14.113Z,52.31
2018-05-08T15:22:41.677Z,47.28
2018-05-08T15:25:09.245Z,47.81
2018-05-08T15:27:37.066Z,49.82
2018-05-08T15:30:04.729Z,50.60
2018-05-08T15:32:32.540Z,53.42
2018-05-08T15:35:00.378Z,53.91
2018-05-08T15:37:28.079Z,48.33
2018-05-08T15:39:55.647Z,47.85
2018-05-08T15:42:23.488Z,47.66
2018-05-08T15:44:51.326Z,49.57
2018-05-08T15:47:19.150Z,51.58
2018-05-08T15:49:46.791Z,50.66
2018-05-08T15:52:14.396Z,48.68
2018-05-08T15:54:42.057Z,47.65
2018-05-08T15:57:09.826Z,46.78
2018-05-08T15:59:37.403Z,47.27
2018-05-08T16:02:05.240Z,47.60
2018-05-08T16:04:33.207Z,48.32
2018-05-08T16:07:00.839Z,48.63
2018-05-08T16:09:28.412Z,50.05
2018-05-08T16:11:56.204Z,49.79
2018-05-08T16:14:23.775Z,50.30
2018-05-08T16:16:51.340Z,51.58
2018-05-08T16:19:19.140Z,55.71
2018-05-08T16:21:46.741Z,55.31
2018-05-08T16:24:14.529Z,56.34
2018-05-08T16:26:42.234Z,58.53
2018-05-08T16:29:10.034Z,57.87
2018-05-08T16:31:37.717Z,58.14
2018-05-08T16:34:05.282Z,58.62
2018-05-08T16:36:32.832Z,58.73
2018-05-08T16:39:00.393Z,58.63
2018-05-08T16:41:28.094Z,57.71
2018-05-08T16:43:55.822Z,58.36
2018-05-08T16:46:24.009Z,58.19
2018-05-08T16:48:51.864Z,57.88
2018-05-08T16:51:19.456Z,59.67
2018-05-08T16:53:47.298Z,62.35
2018-05-08T16:56:16.010Z,61.11
2018-05-08T16:58:43.813Z,60.57
2018-05-08T17:01:11.590Z,60.40
2018-05-08T17:03:39.258Z,60.94
2018-05-08T17:06:07.008Z,60.47
2018-05-08T17:08:34.812Z,60.68
2018-05-08T17:11:02.360Z,60.26
2018-05-08T17:13:30.147Z,61.24
2018-05-08T17:15:58.169Z,61.94
2018-05-08T17:18:25.986Z,61.42
2018-05-08T17:20:53.807Z,63.34
2018-05-08T17:23:21.428Z,62.80
2018-05-08T17:25:49.162Z,62.84
2018-05-08T17:28:16.741Z,62.43
2018-05-08T17:30:44.309Z,63.40
2018-05-08T17:33:11.885Z,63.55
2018-05-08T17:35:39.563Z,66.97
2018-05-08T17:38:07.294Z,66.44
2018-05-08T17:40:35.049Z,65.31
2018-05-08T17:43:02.598Z,65.06
2018-05-08T17:45:30.232Z,67.40
2018-05-08T17:47:57.805Z,65.17
2018-05-08T17:50:25.384Z,65.14
2018-05-08T17:52:53.024Z,65.23
2018-05-08T17:55:20.706Z,66.39
2018-05-08T17:57:48.489Z,66.91
2018-05-08T18:00:16.085Z,67.22
2018-05-08T18:02:43.665Z,68.13
2018-05-08T18:05:11.320Z,68.91
2018-05-08T18:07:39.157Z,69.07
2018-05-08T18:10:06.969Z,69.48
2018-05-08T18:12:34.785Z,70.43
2018-05-08T18:15:02.439Z,70.48
2018-05-08T18:17:30.011Z,71.15
2018-05-08T18:19:58.147Z,71.32
2018-05-08T18:22:26.263Z,71.01
2018-05-08T18:24:54.057Z,71.29
2018-05-08T18:27:21.792Z,71.06
2018-05-08T18:29:49.532Z,71.13
2018-05-08T18:32:17.173Z,71.03
2018-05-08T18:34:44.810Z,71.53
2018-05-08T18:37:12.449Z,72.00
2018-05-08T18:39:40.289Z,71.96
2018-05-08T18:42:07.982Z,72.25
2018-05-08T18:44:35.588Z,71.78
2018-05-08T18:47:04.079Z,72.26
2018-05-08T18:49:32.760Z,73.77
2018-05-08T18:52:00.493Z,73.88
2018-05-08T18:54:28.304Z,74.90
2018-05-08T18:56:56.226Z,74.73
2018-05-08T18:59:24.043Z,74.80
2018-05-08T19:01:52.049Z,73.30
2018-05-08T19:04:19.914Z,73.40
2018-05-08T19:06:47.786Z,73.27
2018-05-08T19:09:15.428Z,73.04
2018-05-08T19:11:43.045Z,73.15
2018-05-08T19:14:10.826Z,73.53
2018-05-08T19:16:38.405Z,73.59
2018-05-08T19:19:11.621Z,72.99
2018-05-08T19:21:39.254Z,72.83
2018-05-08T19:24:12.665Z,73.40
2018-05-08T19:26:40.539Z,73.87
2018-05-08T19:29:14.025Z,73.66
2018-05-08T19:31:41.656Z,74.48
2018-05-08T19:34:09.227Z,74.29
2018-05-08T19:36:42.586Z,74.71
2018-05-08T19:39:10.206Z,74.94
2018-05-08T19:41:37.949Z,74.76
2018-05-08T19:44:05.561Z,75.28
2018-05-08T19:46:33.183Z,75.33
2018-05-08T19:49:01.212Z,75.33
2018-05-08T19:51:29.107Z,75.14
2018-05-08T19:53:57.017Z,74.98
2018-05-08T19:56:25.126Z,74.37
2018-05-08T19:58:52.692Z,73.62
2018-05-08T20:01:20.292Z,73.54
2018-05-08T20:03:48.338Z,72.68
2018-05-08T20:06:15.994Z,72.74
2018-05-08T20:08:43.645Z,72.55
2018-05-08T20:11:11.308Z,72.86
2018-05-08T20:13:39.670Z,73.95
2018-05-08T20:16:07.604Z,73.84
2018-05-08T20:18:35.227Z,73.28
2018-05-08T20:21:02.914Z,74.88
2018-05-08T20:23:30.434Z,75.93
2018-05-08T20:25:58.044Z,76.50
2018-05-08T20:28:25.888Z,77.15
2018-05-08T20:30:53.456Z,77.19
2018-05-08T20:33:21.122Z,76.53
2018-05-08T20:35:48.717Z,76.48
2018-05-08T20:38:16.458Z,75.85
2018-05-08T20:40:44.071Z,75.87
2018-05-08T20:43:11.637Z,75.54
2018-05-08T20:45:39.252Z,75.47
2018-05-08T20:48:06.908Z,75.20
2018-05-08T20:50:34.550Z,76.41
2018-05-08T20:53:02.150Z,77.43
2018-05-08T20:55:29.839Z,78.09
2018-05-08T20:57:57.493Z,77.77
2018-05-08T21:00:25.064Z,77.79
2018-05-08T21:02:52.724Z,77.90
2018-05-08T21:05:20.332Z,77.60
2018-05-08T21:07:47.965Z,77.78
2018-05-08T21:10:15.793Z,76.59
2018-05-08T21:12:43.410Z,76.10
2018-05-08T21:15:11.396Z,76.28
2018-05-08T21:17:39.010Z,76.47
2018-05-08T21:20:07.045Z,78.45
2018-05-08T21:22:35.848Z,78.93
2018-05-08T21:25:03.593Z,79.28
2018-05-08T21:27:36.855Z,79.67
2018-05-08T21:30:10.036Z,80.10
2018-05-08T21:32:38.603Z,80.21
2018-05-08T21:35:06.832Z,80.54
2018-05-08T21:37:34.413Z,80.64
2018-05-08T21:40:02.138Z,81.14
2018-05-08T21:42:29.979Z,81.31
2018-05-08T21:44:57.697Z,81.91
2018-05-08T21:47:25.277Z,81.85
2018-05-08T21:49:53.040Z,82.45
2018-05-08T21:52:20.645Z,82.97
2018-05-08T21:54:48.469Z,83.02
2018-05-08T21:57:16.289Z,83.32
2018-05-08T21:59:44.107Z,83.65
2018-05-08T22:02:11.694Z,82.95
2018-05-08T22:04:39.260Z,83.58
2018-05-08T22:07:06.853Z,83.92
2018-05-08T22:09:34.668Z,84.32
2018-05-08T22:12:02.497Z,84.95
2018-05-08T22:14:30.064Z,85.15
2018-05-08T22:16:57.934Z,85.40
2018-05-08T22:19:25.527Z,84.84
2018-05-08T22:21:53.370Z,85.22
2018-05-08T22:24:21.108Z,85.24
2018-05-08T22:26:48.688Z,84.85
2018-05-08T22:29:16.257Z,84.41
2018-05-08T22:31:44.043Z,84.03
2018-05-08T22:34:11.684Z,84.37
2018-05-08T22:36:39.478Z,84.29
2018-05-08T22:39:07.371Z,84.92
2018-05-08T22:41:34.966Z,85.10
2018-05-08T22:44:02.894Z,85.04
2018-05-08T22:46:30.615Z,85.32
2018-05-08T22:48:58.357Z,84.78
2018-05-08T22:51:25.988Z,85.34
2018-05-08T22:53:53.609Z,85.77
2018-05-08T22:56:21.160Z,86.38
2018-05-08T22:58:49.142Z,85.87
2018-05-08T23:01:16.765Z,85.96
2018-05-08T23:03:44.415Z,86.31
2018-05-08T23:06:11.990Z,85.92
2018-05-08T23:08:39.709Z,85.88
2018-05-08T23:11:07.341Z,85.98
2018-05-08T23:13:34.909Z,86.22
2018-05-08T23:16:02.559Z,85.88
2018-05-08T23:18:30.121Z,86.55
2018-05-08T23:20:57.841Z,86.25
2018-05-08T23:23:25.408Z,86.52
2018-05-08T23:25:53.272Z,87.21
2018-05-08T23:28:20.951Z,87.49
2018-05-08T23:30:48.633Z,87.94
2018-05-08T23:33:16.220Z,87.75
2018-05-08T23:35:44.119Z,87.97
2018-05-08T23:38:11.809Z,87.67
2018-05-08T23:40:39.387Z,87.75
2018-05-08T23:43:07.086Z,88.19
2018-05-08T23:45:34.646Z,88.79
2018-05-08T23:48:02.220Z,89.00
2018-05-08T23:50:30.031Z,88.93
2018-05-08T23:52:57.719Z,89.17
2018-05-08T23:55:25.981Z,88.90
2018-05-08T23:57:54.005Z,88.04
